createdAt,value
2018-09-14T00:34:38.091Z,16.1
2018-09-14T00:49:38.062Z,13
2018-09-14T01:24:38.364Z,13.5
2018-09-14T01:39:52.803Z,13.7
2018-09-14T01:54:52.680Z,18.7
2018-09-14T02:14:53.878Z,20.5
2018-09-14T02:30:05.326Z,16.4
2018-09-14T02:45:05.848Z,17.3
2018-09-14T03:05:06.598Z,19.9
2018-09-14T03:20:06.535Z,20
2018-09-14T03:35:20.413Z,12.8
2018-09-14T03:50:20.258Z,20.1
2018-09-14T04:10:23.814Z,16.7
2018-09-14T04:25:36.056Z,16.5
2018-09-14T04:40:36.093Z,19.4
2018-09-14T05:00:35.941Z,22.7
2018-09-14T05:30:48.891Z,14.4
2018-09-14T05:50:48.776Z,13.6
2018-09-14T06:05:48.630Z,10.9
2018-09-14T06:20:48.595Z,12.9
2018-09-14T06:35:52.486Z,12.2
2018-09-14T06:56:05.286Z,12.2
2018-09-14T07:11:05.438Z,12.5
2018-09-14T07:46:18.043Z,11
2018-09-14T08:01:18.484Z,12.7
2018-09-14T08:16:18.016Z,14.3
2018-09-14T08:36:30.856Z,16.7
2018-09-14T09:56:44.881Z,11.2
2018-09-14T10:11:56.330Z,5.8
2018-09-14T10:31:56.529Z,9.5
2018-09-14T10:46:58.756Z,4
2018-09-14T11:02:09.257Z,3.9
2018-09-14T11:17:09.619Z,2.5
2018-09-14T11:37:22.160Z,2.4
2018-09-14T11:52:22.675Z,4
2018-09-14T12:07:21.626Z,4.1
2018-09-14T12:27:35.075Z,5.7
2018-09-14T12:42:35.343Z,3.1
2018-09-14T12:57:37.430Z,4.6
2018-09-14T13:17:37.346Z,6.7
2018-09-14T13:32:50.638Z,6.6
2018-09-14T13:47:50.337Z,11.2
2018-09-14T14:02:50.370Z,13.8
2018-09-14T14:23:02.787Z,8.6
2018-09-14T14:38:03.406Z,7.8
2018-09-14T14:53:05.510Z,6.6
2018-09-14T15:13:02.542Z,5.7
2018-09-14T15:43:15.336Z,3.8
2018-09-14T16:03:15.380Z,10
2018-09-14T16:18:26.927Z,4.4
2018-09-14T16:33:27.079Z,4.8
2018-09-14T16:48:27.098Z,4.5
2018-09-14T17:08:27.057Z,7.2
2018-09-14T17:23:40.673Z,6.4
2018-09-14T17:38:40.503Z,8.2
2018-09-14T17:58:41.473Z,7.6
2018-09-14T18:13:54.637Z,6.4
2018-09-14T18:28:54.637Z,16.8
2018-09-14T19:03:57.847Z,12.8
2018-09-14T19:19:14.504Z,5.8
2018-09-14T19:34:12.783Z,8.1
2018-09-14T19:54:14.403Z,8.8
2018-09-14T20:09:27.105Z,9.2
2018-09-14T20:24:27.304Z,6.1
2018-09-14T20:44:27.203Z,9.4
2018-09-14T20:59:27.144Z,7.9
2018-09-14T21:29:40.420Z,16
2018-09-14T21:49:41.462Z,12.2
2018-09-14T22:04:53.753Z,15.8
2018-09-14T22:19:53.892Z,11.8
2018-09-14T22:39:53.945Z,13.5
2018-09-14T22:54:53.774Z,19.8
2018-09-14T23:25:06.697Z,10.6
2018-09-14T23:45:06.673Z,20.7
